createdAt,value
2023-11-25T00:01:49.779Z,1.40
2023-11-25T00:04:16.649Z,1.50
2023-11-25T00:06:43.581Z,1.40
2023-11-25T00:09:10.400Z,1.50
2023-11-25T00:11:37.218Z,2.27
2023-11-25T00:14:04.289Z,1.20
2023-11-25T00:16:31.654Z,1.40
2023-11-25T00:18:58.574Z,1.57
2023-11-25T00:21:25.460Z,1.57
2023-11-25T00:23:52.282Z,1.40
2023-11-25T00:26:20.405Z,0.97
2023-11-25T00:28:57.538Z,1.50
2023-11-25T00:31:25.817Z,1.80
2023-11-25T00:33:52.788Z,1.30
2023-11-25T00:36:19.688Z,0.90
2023-11-25T00:38:46.671Z,1.30
2023-11-25T00:41:13.678Z,1.10
2023-11-25T00:43:40.875Z,1.33
2023-11-25T00:46:08.697Z,1.50
2023-11-25T00:48:36.744Z,1.50
2023-11-25T00:51:04.067Z,1.60
2023-11-25T00:53:30.916Z,1.13
2023-11-25T00:55:57.756Z,1.20
2023-11-25T00:58:24.652Z,0.87
2023-11-25T01:00:53.311Z,1.03
2023-11-25T01:03:20.351Z,1.00
2023-11-25T01:05:47.270Z,1.13
2023-11-25T01:08:14.122Z,1.00
2023-11-25T01:10:42.281Z,1.30
2023-11-25T01:13:09.483Z,1.33
2023-11-25T01:15:36.344Z,1.17
2023-11-25T01:18:03.943Z,1.23
2023-11-25T01:20:31.013Z,1.27
2023-11-25T01:22:57.863Z,1.10
2023-11-25T01:25:24.797Z,1.10
2023-11-25T01:27:55.128Z,1.10
2023-11-25T01:30:22.233Z,0.87
2023-11-25T01:32:49.097Z,1.30
2023-11-25T01:35:16.163Z,1.37
2023-11-25T01:37:42.997Z,1.10
2023-11-25T01:40:12.963Z,1.00
2023-11-25T01:42:39.985Z,1.20
2023-11-25T01:45:09.700Z,1.17
2023-11-25T01:47:37.805Z,1.10
2023-11-25T01:50:07.248Z,1.07
2023-11-25T01:52:36.155Z,1.03
2023-11-25T01:55:04.368Z,1.10
2023-11-25T01:57:33.796Z,0.80
2023-11-25T02:00:08.885Z,1.27
2023-11-25T02:02:39.633Z,1.10
2023-11-25T02:05:07.231Z,1.23
2023-11-25T02:07:34.211Z,1.27
2023-11-25T02:10:01.238Z,1.10
2023-11-25T02:12:28.193Z,1.37
2023-11-25T02:14:55.205Z,1.37
2023-11-25T02:17:22.552Z,1.87
2023-11-25T02:19:49.503Z,1.20
2023-11-25T02:22:17.234Z,1.30
2023-11-25T02:24:44.194Z,1.47
2023-11-25T02:27:12.939Z,1.20
2023-11-25T02:29:40.264Z,1.40
2023-11-25T02:32:08.327Z,1.20
2023-11-25T02:34:35.339Z,1.30
2023-11-25T02:37:02.921Z,1.60
2023-11-25T02:39:29.862Z,1.93
2023-11-25T02:41:56.804Z,1.53
2023-11-25T02:44:23.806Z,1.33
2023-11-25T02:46:51.219Z,1.57
2023-11-25T02:49:18.653Z,1.40
2023-11-25T02:51:52.913Z,1.77
2023-11-25T02:54:21.163Z,1.97
2023-11-25T02:56:48.082Z,2.60
2023-11-25T02:59:15.578Z,1.90
2023-11-25T03:01:55.198Z,1.70
2023-11-25T03:04:25.004Z,1.70
2023-11-25T03:06:53.024Z,1.70
2023-11-25T03:09:20.384Z,2.00
2023-11-25T03:11:48.031Z,2.03
2023-11-25T03:14:16.714Z,2.07
2023-11-25T03:16:43.841Z,1.83
2023-11-25T03:19:12.111Z,1.87
2023-11-25T03:21:39.263Z,2.10
2023-11-25T03:24:09.017Z,1.80
2023-11-25T03:26:36.216Z,2.13
2023-11-25T03:29:03.077Z,1.97
2023-11-25T03:31:29.980Z,1.80
2023-11-25T03:33:57.093Z,2.63
2023-11-25T03:36:24.031Z,1.70
2023-11-25T03:38:51.430Z,1.77
2023-11-25T03:41:19.289Z,2.20
2023-11-25T03:43:46.319Z,2.20
2023-11-25T03:46:14.720Z,1.97
2023-11-25T03:48:42.139Z,2.23
2023-11-25T03:51:12.264Z,2.43
2023-11-25T03:53:39.309Z,2.27
2023-11-25T03:56:07.612Z,3.00
2023-11-25T03:58:35.527Z,2.03
2023-11-25T04:01:02.766Z,1.83
2023-11-25T04:03:29.733Z,2.30
2023-11-25T04:05:58.663Z,2.07
2023-11-25T04:08:25.887Z,2.17
2023-11-25T04:10:53.949Z,2.40
2023-11-25T04:13:20.939Z,2.83
2023-11-25T04:15:47.770Z,2.67
2023-11-25T04:18:14.703Z,2.17
2023-11-25T04:20:41.760Z,2.27
2023-11-25T04:23:09.453Z,2.90
2023-11-25T04:25:37.480Z,2.10
2023-11-25T04:28:10.043Z,2.50
2023-11-25T04:30:37.306Z,2.63
2023-11-25T04:33:04.317Z,2.40
2023-11-25T04:35:31.355Z,4.20
2023-11-25T04:37:58.232Z,3.50
2023-11-25T04:40:25.466Z,3.13
2023-11-25T04:42:52.359Z,3.63
2023-11-25T04:45:21.266Z,3.60
2023-11-25T04:47:51.196Z,3.40
2023-11-25T04:50:19.490Z,4.00
2023-11-25T04:52:46.528Z,3.80
2023-11-25T04:55:14.131Z,4.63
2023-11-25T04:57:41.700Z,4.50
2023-11-25T05:00:12.954Z,4.40
2023-11-25T05:02:40.894Z,4.73
2023-11-25T05:05:08.808Z,4.97
2023-11-25T05:07:36.534Z,4.73
2023-11-25T05:10:06.181Z,4.03
2023-11-25T05:12:33.596Z,4.20
2023-11-25T05:15:00.459Z,5.10
2023-11-25T05:17:30.389Z,4.43
2023-11-25T05:19:57.462Z,4.27
2023-11-25T05:22:28.808Z,4.10
2023-11-25T05:24:56.350Z,3.87
2023-11-25T05:27:23.825Z,4.10
2023-11-25T05:29:51.057Z,4.03
2023-11-25T05:32:18.245Z,4.10
2023-11-25T05:34:45.898Z,3.53
2023-11-25T05:37:14.258Z,3.43
2023-11-25T05:39:42.078Z,4.03
2023-11-25T05:42:09.652Z,3.70
2023-11-25T05:44:36.621Z,4.07
2023-11-25T05:47:04.113Z,3.33
2023-11-25T05:49:31.070Z,3.77
2023-11-25T05:52:00.885Z,3.67
2023-11-25T05:54:28.599Z,3.47
2023-11-25T05:56:55.537Z,3.70
2023-11-25T05:59:23.183Z,3.23
2023-11-25T06:01:50.262Z,3.63
2023-11-25T06:04:21.413Z,3.40
2023-11-25T06:06:49.102Z,3.60
2023-11-25T06:09:16.358Z,2.97
2023-11-25T06:11:43.385Z,3.10
2023-11-25T06:14:13.663Z,3.10
2023-11-25T06:16:43.974Z,3.03
2023-11-25T06:19:12.151Z,2.67
2023-11-25T06:21:40.714Z,2.73
2023-11-25T06:24:09.041Z,2.53
2023-11-25T06:26:36.271Z,2.67
2023-11-25T06:29:03.832Z,2.50
2023-11-25T06:31:31.053Z,2.60
2023-11-25T06:33:59.531Z,2.40
2023-11-25T06:36:26.423Z,2.40
2023-11-25T06:38:53.432Z,2.07
2023-11-25T06:41:24.536Z,2.97
2023-11-25T06:43:51.505Z,2.43
2023-11-25T06:46:18.607Z,2.20
2023-11-25T06:48:45.740Z,1.90
2023-11-25T06:51:13.209Z,2.40
2023-11-25T06:53:43.370Z,1.73
2023-11-25T06:56:13.584Z,2.47
2023-11-25T06:58:41.375Z,2.77
2023-11-25T07:01:08.410Z,2.20
2023-11-25T07:03:35.635Z,2.30
2023-11-25T07:06:02.599Z,2.03
2023-11-25T07:08:29.711Z,2.33
2023-11-25T07:11:00.216Z,2.03
2023-11-25T07:13:29.408Z,2.30
2023-11-25T07:15:57.397Z,3.33
2023-11-25T07:18:24.528Z,2.47
2023-11-25T07:20:54.185Z,2.73
2023-11-25T07:23:22.675Z,1.90
2023-11-25T07:25:49.697Z,2.03
2023-11-25T07:28:17.297Z,2.40
2023-11-25T07:30:45.841Z,2.90
2023-11-25T07:33:12.815Z,2.27
2023-11-25T07:35:40.044Z,2.00
2023-11-25T07:38:07.289Z,2.40
2023-11-25T07:40:35.341Z,2.10
2023-11-25T07:43:02.421Z,2.90
2023-11-25T07:45:29.304Z,2.50
2023-11-25T07:47:56.206Z,2.97
2023-11-25T07:50:23.401Z,2.57
2023-11-25T07:52:51.913Z,1.90
2023-11-25T07:55:19.353Z,1.70
2023-11-25T07:57:49.027Z,1.93
2023-11-25T08:00:17.695Z,1.70
2023-11-25T08:02:45.954Z,1.90
2023-11-25T08:05:22.788Z,1.87
2023-11-25T08:07:54.206Z,1.73
2023-11-25T08:10:23.146Z,1.40
2023-11-25T08:12:50.397Z,1.70
2023-11-25T08:15:20.373Z,1.63
2023-11-25T08:17:47.544Z,1.40
2023-11-25T08:20:15.014Z,1.70
2023-11-25T08:22:42.051Z,1.50
2023-11-25T08:25:09.792Z,1.53
2023-11-25T08:27:38.107Z,1.53
2023-11-25T08:30:12.970Z,2.00
2023-11-25T08:32:41.307Z,2.20
2023-11-25T08:35:12.741Z,1.90
2023-11-25T08:37:40.636Z,1.93
2023-11-25T08:40:10.922Z,1.90
2023-11-25T08:42:37.955Z,1.93
2023-11-25T08:45:05.476Z,1.73
2023-11-25T08:47:33.478Z,1.83
2023-11-25T08:50:00.640Z,1.80
2023-11-25T08:52:28.663Z,1.80
2023-11-25T08:54:55.875Z,2.38
2023-11-25T08:57:22.845Z,1.70
2023-11-25T08:59:49.742Z,1.60
2023-11-25T09:02:23.464Z,2.30
2023-11-25T09:05:03.063Z,1.60
2023-11-25T09:07:36.015Z,1.83
2023-11-25T09:10:06.575Z,1.50
2023-11-25T09:12:33.730Z,1.60
2023-11-25T09:15:01.160Z,1.57
2023-11-25T09:17:28.265Z,1.50
2023-11-25T09:19:55.728Z,2.05
2023-11-25T09:22:22.753Z,1.97
2023-11-25T09:24:49.652Z,1.87
2023-11-25T09:27:16.574Z,2.20
2023-11-25T09:29:43.947Z,1.70
2023-11-25T09:32:11.691Z,2.60
2023-11-25T09:34:40.186Z,2.03
2023-11-25T09:37:08.786Z,1.67
2023-11-25T09:39:36.297Z,1.73
2023-11-25T09:42:03.433Z,2.10
2023-11-25T09:44:31.769Z,1.90
2023-11-25T09:46:58.787Z,2.07
2023-11-25T09:49:26.267Z,1.70
2023-11-25T09:52:00.908Z,1.97
2023-11-25T09:54:28.188Z,1.87
2023-11-25T09:56:55.550Z,1.37
2023-11-25T09:59:24.867Z,1.87
2023-11-25T10:01:52.240Z,1.97
2023-11-25T10:04:21.551Z,2.03
2023-11-25T10:06:52.628Z,2.13
2023-11-25T10:09:22.384Z,2.10
2023-11-25T10:11:49.241Z,2.33
2023-11-25T10:14:18.605Z,2.10
2023-11-25T10:16:47.145Z,2.00
2023-11-25T10:19:24.536Z,2.07
2023-11-25T10:21:53.069Z,2.03
2023-11-25T10:24:23.639Z,2.10
2023-11-25T10:26:52.222Z,2.20
2023-11-25T10:29:22.469Z,2.30
2023-11-25T10:31:58.681Z,2.30
2023-11-25T10:34:27.091Z,2.80
2023-11-25T10:36:54.181Z,3.23
2023-11-25T10:39:23.351Z,2.80
2023-11-25T10:41:52.148Z,2.40
2023-11-25T10:44:19.466Z,3.03
2023-11-25T10:46:46.364Z,3.17
2023-11-25T10:49:14.993Z,2.83
2023-11-25T10:51:45.561Z,2.60
2023-11-25T10:54:13.639Z,2.40
2023-11-25T10:56:41.916Z,3.77
2023-11-25T10:59:13.995Z,2.87
2023-11-25T11:01:44.551Z,3.23
2023-11-25T11:04:22.589Z,2.83
2023-11-25T11:06:55.619Z,4.77
2023-11-25T11:09:28.890Z,3.30
2023-11-25T11:12:02.586Z,3.73
2023-11-25T11:14:36.965Z,3.30
2023-11-25T11:17:28.623Z,3.03
2023-11-25T11:19:59.305Z,3.33
2023-11-25T11:22:28.293Z,4.60
2023-11-25T11:25:13.709Z,4.17
2023-11-25T11:28:18.628Z,3.60
2023-11-25T11:31:21.232Z,3.60
2023-11-25T11:33:48.352Z,4.60
2023-11-25T11:36:22.543Z,4.13
2023-11-25T11:38:49.473Z,4.70
2023-11-25T11:41:16.229Z,4.20
2023-11-25T11:44:00.770Z,4.30
2023-11-25T11:46:28.391Z,4.23
2023-11-25T11:48:55.550Z,5.73
2023-11-25T11:51:24.565Z,4.63
2023-11-25T11:54:22.471Z,4.73
2023-11-25T11:57:02.151Z,4.50
2023-11-25T12:00:02.991Z,4.53
2023-11-25T12:02:32.448Z,4.37
2023-11-25T12:05:00.857Z,5.00
2023-11-25T12:07:28.572Z,5.03
2023-11-25T12:09:56.521Z,5.53
2023-11-25T12:12:24.266Z,4.63
2023-11-25T12:14:53.554Z,4.27
2023-11-25T12:17:22.565Z,4.67
2023-11-25T12:19:52.686Z,5.83
2023-11-25T12:22:19.602Z,6.47
2023-11-25T12:24:46.483Z,5.17
2023-11-25T12:27:15.657Z,4.93
2023-11-25T12:29:42.521Z,5.10
2023-11-25T12:32:09.538Z,5.33
2023-11-25T12:34:36.744Z,5.37
2023-11-25T12:37:03.843Z,4.53
2023-11-25T12:39:30.732Z,5.97
2023-11-25T12:41:57.723Z,5.27
2023-11-25T12:44:24.684Z,7.10
2023-11-25T12:47:07.214Z,6.43
2023-11-25T12:49:35.387Z,5.50
2023-11-25T12:52:02.485Z,5.80
2023-11-25T12:54:45.863Z,4.63
2023-11-25T12:57:13.660Z,6.00
2023-11-25T12:59:40.727Z,6.10
2023-11-25T13:02:11.281Z,5.27
2023-11-25T13:04:49.400Z,5.90
2023-11-25T13:07:29.918Z,5.47
2023-11-25T13:09:56.950Z,4.47
2023-11-25T13:12:23.757Z,4.27
2023-11-25T13:14:50.953Z,4.13
2023-11-25T13:17:18.082Z,4.70
2023-11-25T13:19:45.290Z,3.80
2023-11-25T13:22:12.133Z,4.60
2023-11-25T13:24:39.083Z,4.00
2023-11-25T13:27:07.310Z,4.53
2023-11-25T13:29:35.106Z,4.73
2023-11-25T13:32:02.001Z,3.83
2023-11-25T13:34:28.879Z,4.03
2023-11-25T13:36:55.757Z,3.93
2023-11-25T13:39:24.666Z,4.37
2023-11-25T13:41:52.145Z,3.97
2023-11-25T13:44:19.068Z,3.80
2023-11-25T13:46:46.054Z,4.53
2023-11-25T13:49:13.616Z,3.70
2023-11-25T13:51:40.682Z,3.90
2023-11-25T13:54:07.595Z,3.53
2023-11-25T13:56:34.450Z,4.20
2023-11-25T13:59:01.437Z,3.93
2023-11-25T14:01:29.725Z,4.57
2023-11-25T14:03:57.688Z,2.73
2023-11-25T14:06:25.751Z,3.90
2023-11-25T14:08:52.679Z,3.83
2023-11-25T14:11:24.640Z,3.87
2023-11-25T14:13:52.864Z,3.80
2023-11-25T14:16:19.865Z,4.03
2023-11-25T14:18:46.766Z,3.93
2023-11-25T14:21:14.596Z,4.57
2023-11-25T14:23:41.423Z,3.40
2023-11-25T14:26:08.334Z,3.57
2023-11-25T14:28:35.393Z,3.70
2023-11-25T14:31:02.272Z,3.67
2023-11-25T14:33:29.299Z,3.73
2023-11-25T14:35:56.204Z,3.87
2023-11-25T14:38:23.691Z,4.07
2023-11-25T14:40:50.705Z,3.97
2023-11-25T14:43:17.635Z,3.83
2023-11-25T14:45:44.507Z,3.77
2023-11-25T14:48:12.083Z,3.47
2023-11-25T14:50:42.120Z,3.57
2023-11-25T14:53:09.460Z,4.40
2023-11-25T14:55:36.364Z,4.00
2023-11-25T14:58:04.090Z,3.73
2023-11-25T15:00:31.095Z,3.60
2023-11-25T15:02:59.239Z,3.80
2023-11-25T15:05:26.315Z,4.37
2023-11-25T15:07:53.231Z,4.60
2023-11-25T15:10:25.926Z,4.00
2023-11-25T15:12:53.861Z,4.07
2023-11-25T15:15:20.734Z,4.60
2023-11-25T15:17:47.826Z,3.73
2023-11-25T15:20:15.506Z,3.23
2023-11-25T15:22:42.630Z,3.33
2023-11-25T15:25:09.951Z,3.80
2023-11-25T15:27:36.911Z,4.10
2023-11-25T15:30:14.151Z,4.70
2023-11-25T15:32:43.766Z,5.13
2023-11-25T15:35:11.333Z,5.93
2023-11-25T15:37:38.470Z,5.13
2023-11-25T15:40:06.053Z,10.40
2023-11-25T15:42:33.264Z,4.17
2023-11-25T15:45:00.094Z,4.97
2023-11-25T15:47:27.031Z,4.43
2023-11-25T15:49:54.451Z,3.93
2023-11-25T15:52:21.346Z,3.37
2023-11-25T15:54:48.190Z,5.07
2023-11-25T15:57:15.030Z,4.30
2023-11-25T15:59:45.116Z,3.33
2023-11-25T16:02:12.228Z,3.60
2023-11-25T16:04:39.365Z,3.47
2023-11-25T16:07:11.595Z,4.13
2023-11-25T16:09:39.997Z,4.43
2023-11-25T16:12:07.440Z,4.00
2023-11-25T16:14:37.149Z,4.30
2023-11-25T16:17:04.234Z,3.77
2023-11-25T16:19:31.180Z,2.77
2023-11-25T16:21:58.220Z,3.43
2023-11-25T16:24:25.074Z,3.03
2023-11-25T16:26:51.918Z,4.20
2023-11-25T16:29:21.646Z,3.93
2023-11-25T16:31:48.532Z,3.13
2023-11-25T16:34:15.459Z,3.23
2023-11-25T16:36:42.361Z,3.13
2023-11-25T16:39:11.089Z,3.17
2023-11-25T16:41:38.659Z,3.80
2023-11-25T16:44:05.809Z,3.27
2023-11-25T16:46:33.493Z,4.00
2023-11-25T16:49:07.545Z,4.50
2023-11-25T16:51:36.050Z,4.30
2023-11-25T16:54:02.974Z,4.60
2023-11-25T16:56:29.895Z,3.90
2023-11-25T16:58:56.772Z,4.50
2023-11-25T17:01:23.657Z,5.73
2023-11-25T17:03:51.800Z,6.97
2023-11-25T17:06:19.500Z,4.53
2023-11-25T17:08:46.563Z,6.73
2023-11-25T17:11:13.448Z,8.30
2023-11-25T17:13:40.373Z,5.70
2023-11-25T17:16:07.463Z,4.87
2023-11-25T17:18:34.707Z,4.30
2023-11-25T17:21:02.554Z,5.30
2023-11-25T17:23:29.544Z,3.73
2023-11-25T17:25:56.415Z,6.70
2023-11-25T17:28:25.468Z,4.27
2023-11-25T17:30:52.351Z,5.30
2023-11-25T17:33:19.411Z,9.10
2023-11-25T17:35:46.414Z,8.77
2023-11-25T17:38:13.340Z,7.70
2023-11-25T17:40:40.281Z,4.73
2023-11-25T17:43:07.168Z,3.03
2023-11-25T17:45:34.020Z,3.10
2023-11-25T17:48:00.995Z,4.27
2023-11-25T17:50:28.761Z,3.47
2023-11-25T17:53:06.501Z,3.53
2023-11-25T17:55:38.986Z,3.13
2023-11-25T17:58:05.925Z,3.73
2023-11-25T18:00:32.763Z,7.23
2023-11-25T18:02:59.819Z,3.57
2023-11-25T18:05:26.836Z,3.73
2023-11-25T18:07:54.940Z,4.40
2023-11-25T18:10:22.000Z,4.10
2023-11-25T18:12:48.904Z,3.90
2023-11-25T18:15:15.727Z,6.10
2023-11-25T18:17:42.798Z,7.50
2023-11-25T18:20:12.241Z,6.40
2023-11-25T18:22:42.578Z,4.93
2023-11-25T18:25:12.770Z,3.97
2023-11-25T18:27:40.092Z,4.00
2023-11-25T18:30:07.483Z,6.77
2023-11-25T18:32:34.421Z,5.37
2023-11-25T18:35:02.325Z,10.70
2023-11-25T18:37:29.492Z,24.93
2023-11-25T18:39:56.500Z,8.67
2023-11-25T18:42:23.391Z,5.40
2023-11-25T18:44:50.272Z,7.00
2023-11-25T18:47:17.249Z,4.90
2023-11-25T18:49:44.127Z,4.40
2023-11-25T18:52:11.136Z,7.07
2023-11-25T18:54:38.098Z,4.50
2023-11-25T18:57:07.156Z,7.53
2023-11-25T18:59:34.144Z,9.07
2023-11-25T19:02:01.120Z,16.30
2023-11-25T19:04:28.132Z,5.77
2023-11-25T19:06:55.093Z,5.37
2023-11-25T19:09:22.235Z,5.07
2023-11-25T19:11:50.219Z,5.90
2023-11-25T19:14:17.300Z,6.93
2023-11-25T19:16:44.766Z,7.37
2023-11-25T19:19:11.772Z,7.13
2023-11-25T19:21:38.807Z,6.73
2023-11-25T19:24:06.342Z,5.20
2023-11-25T19:26:33.387Z,4.63
2023-11-25T19:29:00.444Z,7.83
2023-11-25T19:31:27.569Z,7.07
2023-11-25T19:33:54.724Z,7.07
2023-11-25T19:36:22.558Z,7.80
2023-11-25T19:38:49.649Z,7.07
2023-11-25T19:41:16.761Z,6.73
2023-11-25T19:43:43.964Z,7.80
2023-11-25T19:46:13.751Z,5.13
2023-11-25T19:48:41.284Z,5.00
2023-11-25T19:51:08.737Z,4.13
2023-11-25T19:53:49.674Z,6.00
2023-11-25T19:56:19.859Z,5.67
2023-11-25T19:58:47.112Z,4.30
2023-11-25T20:01:14.946Z,3.73
2023-11-25T20:03:41.897Z,4.30
2023-11-25T20:06:09.254Z,4.00
2023-11-25T20:08:36.429Z,6.20
2023-11-25T20:11:04.379Z,5.47
2023-11-25T20:13:31.881Z,5.40
2023-11-25T20:15:59.347Z,4.50
2023-11-25T20:18:26.442Z,5.23
2023-11-25T20:20:53.626Z,5.47
2023-11-25T20:23:21.142Z,4.57
2023-11-25T20:25:48.171Z,5.47
2023-11-25T20:28:15.115Z,7.90
2023-11-25T20:30:42.052Z,5.53
2023-11-25T20:33:09.218Z,5.93
2023-11-25T20:35:36.157Z,5.80
2023-11-25T20:38:03.537Z,5.03
2023-11-25T20:40:30.838Z,4.70
2023-11-25T20:42:58.124Z,4.87
2023-11-25T20:45:25.217Z,4.83
2023-11-25T20:47:52.161Z,5.00
2023-11-25T20:50:19.228Z,4.57
2023-11-25T20:52:47.894Z,5.00
2023-11-25T20:55:15.036Z,5.87
2023-11-25T20:57:41.965Z,4.37
2023-11-25T21:00:10.266Z,5.53
2023-11-25T21:02:39.559Z,5.17
2023-11-25T21:05:07.069Z,4.50
2023-11-25T21:07:34.060Z,5.30
2023-11-25T21:10:00.982Z,5.10
2023-11-25T21:12:27.858Z,5.30
2023-11-25T21:14:54.820Z,4.53
2023-11-25T21:17:21.665Z,5.00
2023-11-25T21:19:48.675Z,3.37
2023-11-25T21:22:18.797Z,2.70
2023-11-25T21:24:45.690Z,3.13
2023-11-25T21:27:12.539Z,3.17
2023-11-25T21:29:39.806Z,3.00
2023-11-25T21:32:09.281Z,3.27
2023-11-25T21:34:36.795Z,3.33
2023-11-25T21:37:05.271Z,3.90
2023-11-25T21:39:32.140Z,3.77
2023-11-25T21:41:59.070Z,3.00
2023-11-25T21:44:26.026Z,3.43
2023-11-25T21:46:53.232Z,3.60
2023-11-25T21:49:20.145Z,3.00
2023-11-25T21:51:47.063Z,3.80
2023-11-25T21:54:14.093Z,2.40
2023-11-25T21:56:40.972Z,2.80
2023-11-25T21:59:07.933Z,2.40
2023-11-25T22:01:34.882Z,2.37
2023-11-25T22:04:02.417Z,2.60
2023-11-25T22:06:29.791Z,2.60
2023-11-25T22:08:59.409Z,2.57
2023-11-25T22:11:26.332Z,2.83
2023-11-25T22:13:53.835Z,2.67
2023-11-25T22:16:20.766Z,2.43
2023-11-25T22:18:48.814Z,2.00
2023-11-25T22:21:20.380Z,2.43
2023-11-25T22:23:49.161Z,2.40
2023-11-25T22:26:35.217Z,2.70
2023-11-25T22:29:04.769Z,2.20
2023-11-25T22:31:31.821Z,2.20
2023-11-25T22:34:00.139Z,2.37
2023-11-25T22:36:28.282Z,2.90
2023-11-25T22:38:56.096Z,2.53
2023-11-25T22:41:25.125Z,3.70
2023-11-25T22:43:52.784Z,3.73
2023-11-25T22:46:22.241Z,3.10
2023-11-25T22:48:50.248Z,3.23
2023-11-25T22:51:18.061Z,3.70
2023-11-25T22:53:44.886Z,3.13
2023-11-25T22:56:11.910Z,2.77
2023-11-25T22:58:39.551Z,2.80
2023-11-25T23:01:06.675Z,2.90
2023-11-25T23:03:33.740Z,3.07
2023-11-25T23:06:00.849Z,2.80
2023-11-25T23:08:27.715Z,2.70
2023-11-25T23:10:56.231Z,2.73
2023-11-25T23:13:23.170Z,2.57
2023-11-25T23:15:50.068Z,3.17
2023-11-25T23:18:18.233Z,4.43
2023-11-25T23:20:45.258Z,3.80
2023-11-25T23:23:12.345Z,3.90
2023-11-25T23:25:39.225Z,7.87
2023-11-25T23:28:07.032Z,7.20
2023-11-25T23:30:33.896Z,4.97
2023-11-25T23:33:00.886Z,3.53
2023-11-25T23:35:28.831Z,2.83
2023-11-25T23:37:55.810Z,2.70
2023-11-25T23:40:22.783Z,2.67
2023-11-25T23:42:49.653Z,2.70
2023-11-25T23:45:16.596Z,2.60
2023-11-25T23:47:45.004Z,2.53
2023-11-25T23:50:12.095Z,2.53
2023-11-25T23:52:39.413Z,2.43
2023-11-25T23:55:06.725Z,2.93
2023-11-25T23:57:33.715Z,2.67
